Dededo, Guam
Current Conditions -  °F | °C
As of 4:54 AM on Saturday 22 Nov 2014 (Local Time) from PGUM Reporting Station
Clear Clear  
Wind Chill: 81°   Ceiling: Unl
Heat Index: 88°   Visibility: 10mi
Dew Point: 77°   Wind: 10mph
Humidity: 88%   Direction: 70°ENE
Pressure: 29.87"   Gusts: NA
Location:  13.51°N, 144.84°E
Report Text: PGUM 211854Z 07009KT 10SM CLR 27/25 A2987 RMK AO2 SLP107 T02720250
Loading
Personal Weather Stations






























Interactive Weather Map New forecast layout! Learn more

10-Day Weather Forecast

Advertisements
Track Severe Weather on mobile